sensor_id;sensor_type;location;lat;lon;timestamp;P1;durP1;ratioP1;P2;durP2;ratioP2
15504;SDS011;7854;52.184;5.942;2023-01-13T00:02:55;24;;;2;;
15504;SDS011;7854;52.184;5.942;2023-01-13T00:02:55;11;;;3;;
15504;SDS011;7854;52.184;5.942;2023-01-13T00:04:53;11;;;3;;
15504;SDS011;7854;52.184;5.942;2023-01-13T00:07:07;7;;;2;;
15504;SDS011;7854;52.184;5.942;2023-01-13T00:09:22;9;;;3;;
15504;SDS011;7854;52.184;5.942;2023-01-13T00:11:36;13;;;2;;
15504;SDS011;7854;52.184;5.942;2023-01-13T00:13:50;8;;;3;;
15504;SDS011;7854;52.184;5.942;2023-01-13T00:16:05;15;;;3;;
15504;SDS011;7854;52.184;5.942;2023-01-13T00:18:19;22;;;3;;
15504;SDS011;7854;52.184;5.942;2023-01-13T00:20:33;39;;;3;;
15504;SDS011;7854;52.184;5.942;2023-01-13T00:22:48;16;;;3;;
15504;SDS011;7854;52.184;5.942;2023-01-13T00:25:03;8;;;2;;
15504;SDS011;7854;52.184;5.942;2023-01-13T00:27:16;30;;;3;;
15504;SDS011;7854;52.184;5.942;2023-01-13T00:29:31;14;;;4;;
15504;SDS011;7854;52.184;5.942;2023-01-13T00:31:45;12;;;3;;
15504;SDS011;7854;52.184;5.942;2023-01-13T00:34:00;9;;;2;;
15504;SDS011;7854;52.184;5.942;2023-01-13T00:36:14;10;;;3;;
15504;SDS011;7854;52.184;5.942;2023-01-13T00:38:29;16;;;4;;
15504;SDS011;7854;52.184;5.942;2023-01-13T00:40:43;14;;;5;;
15504;SDS011;7854;52.184;5.942;2023-01-13T00:42:57;4;;;3;;
15504;SDS011;7854;52.184;5.942;2023-01-13T00:45:12;12;;;3;;
15504;SDS011;7854;52.184;5.942;2023-01-13T00:47:26;24;;;4;;
15504;SDS011;7854;52.184;5.942;2023-01-13T00:49:40;35;;;4;;
15504;SDS011;7854;52.184;5.942;2023-01-13T00:51:55;28;;;4;;
15504;SDS011;7854;52.184;5.942;2023-01-13T00:54:09;16;;;4;;
15504;SDS011;7854;52.184;5.942;2023-01-13T00:56:24;13;;;3;;
15504;SDS011;7854;52.184;5.942;2023-01-13T00:58:39;12;;;3;;
15504;SDS011;7854;52.184;5.942;2023-01-13T01:00:53;24;;;3;;
15504;SDS011;7854;52.184;5.942;2023-01-13T01:03:08;13;;;4;;
15504;SDS011;7854;52.184;5.942;2023-01-13T01:05:22;34;;;4;;
15504;SDS011;7854;52.184;5.942;2023-01-13T01:07:36;14;;;4;;
15504;SDS011;7854;52.184;5.942;2023-01-13T01:09:50;26;;;5;;
15504;SDS011;7854;52.184;5.942;2023-01-13T01:12:05;20;;;3;;
15504;SDS011;7854;52.184;5.942;2023-01-13T01:14:20;16;;;3;;
15504;SDS011;7854;52.184;5.942;2023-01-13T01:16:34;22;;;3;;
15504;SDS011;7854;52.184;5.942;2023-01-13T01:18:49;13;;;3;;
15504;SDS011;7854;52.184;5.942;2023-01-13T01:21:03;19;;;3;;
15504;SDS011;7854;52.184;5.942;2023-01-13T01:23:18;19;;;3;;
15504;SDS011;7854;52.184;5.942;2023-01-13T01:25:32;19;;;3;;
15504;SDS011;7854;52.184;5.942;2023-01-13T01:27:46;12;;;3;;
15504;SDS011;7854;52.184;5.942;2023-01-13T01:30:00;9;;;3;;
15504;SDS011;7854;52.184;5.942;2023-01-13T01:32:15;20;;;3;;
15504;SDS011;7854;52.184;5.942;2023-01-13T01:34:30;18;;;3;;
15504;SDS011;7854;52.184;5.942;2023-01-13T01:36:44;30;;;2;;
15504;SDS011;7854;52.184;5.942;2023-01-13T01:38:59;23;;;4;;
15504;SDS011;7854;52.184;5.942;2023-01-13T01:41:14;13;;;3;;
15504;SDS011;7854;52.184;5.942;2023-01-13T01:43:45;23;;;4;;
15504;SDS011;7854;52.184;5.942;2023-01-13T01:45:42;17;;;4;;
15504;SDS011;7854;52.184;5.942;2023-01-13T01:47:57;23;;;4;;
15504;SDS011;7854;52.184;5.942;2023-01-13T01:50:11;15;;;4;;
15504;SDS011;7854;52.184;5.942;2023-01-13T01:52:27;18;;;3;;
15504;SDS011;7854;52.184;5.942;2023-01-13T01:54:41;14;;;4;;
15504;SDS011;7854;52.184;5.942;2023-01-13T01:56:54;10;;;3;;
15504;SDS011;7854;52.184;5.942;2023-01-13T01:59:09;20;;;2;;
15504;SDS011;7854;52.184;5.942;2023-01-13T02:01:23;27;;;4;;
15504;SDS011;7854;52.184;5.942;2023-01-13T02:03:38;32;;;3;;
15504;SDS011;7854;52.184;5.942;2023-01-13T02:05:52;7;;;3;;
15504;SDS011;7854;52.184;5.942;2023-01-13T02:08:07;14;;;3;;
15504;SDS011;7854;52.184;5.942;2023-01-13T02:10:22;17;;;3;;
15504;SDS011;7854;52.184;5.942;2023-01-13T02:12:35;20;;;3;;
15504;SDS011;7854;52.184;5.942;2023-01-13T02:14:49;14;;;3;;
15504;SDS011;7854;52.184;5.942;2023-01-13T02:17:08;19;;;4;;
15504;SDS011;7854;52.184;5.942;2023-01-13T02:19:25;44;;;6;;
15504;SDS011;7854;52.184;5.942;2023-01-13T02:21:37;40;;;4;;
15504;SDS011;7854;52.184;5.942;2023-01-13T02:23:53;15;;;3;;
15504;SDS011;7854;52.184;5.942;2023-01-13T02:26:07;9;;;3;;
15504;SDS011;7854;52.184;5.942;2023-01-13T02:28:20;18;;;3;;
15504;SDS011;7854;52.184;5.942;2023-01-13T02:30:39;23;;;4;;
15504;SDS011;7854;52.184;5.942;2023-01-13T02:32:49;15;;;4;;
15504;SDS011;7854;52.184;5.942;2023-01-13T02:35:02;16;;;3;;
15504;SDS011;7854;52.184;5.942;2023-01-13T02:37:15;21;;;4;;
15504;SDS011;7854;52.184;5.942;2023-01-13T02:39:28;13;;;4;;
15504;SDS011;7854;52.184;5.942;2023-01-13T02:41:43;21;;;5;;
15504;SDS011;7854;52.184;5.942;2023-01-13T02:43:57;25;;;3;;
15504;SDS011;7854;52.184;5.942;2023-01-13T02:46:11;36;;;5;;
15504;SDS011;7854;52.184;5.942;2023-01-13T02:48:26;15;;;3;;
15504;SDS011;7854;52.184;5.942;2023-01-13T02:50:41;13;;;4;;
15504;SDS011;7854;52.184;5.942;2023-01-13T02:52:55;25;;;4;;
15504;SDS011;7854;52.184;5.942;2023-01-13T02:55:09;17;;;4;;
15504;SDS011;7854;52.184;5.942;2023-01-13T02:57:23;16;;;3;;
15504;SDS011;7854;52.184;5.942;2023-01-13T02:59:38;24;;;4;;
15504;SDS011;7854;52.184;5.942;2023-01-13T03:01:53;27;;;7;;
15504;SDS011;7854;52.184;5.942;2023-01-13T03:04:10;21;;;5;;
15504;SDS011;7854;52.184;5.942;2023-01-13T03:06:25;20;;;5;;
15504;SDS011;7854;52.184;5.942;2023-01-13T03:08:37;25;;;5;;
15504;SDS011;7854;52.184;5.942;2023-01-13T03:10:53;15;;;4;;
15504;SDS011;7854;52.184;5.942;2023-01-13T03:13:08;33;;;4;;
15504;SDS011;7854;52.184;5.942;2023-01-13T03:15:20;29;;;4;;
15504;SDS011;7854;52.184;5.942;2023-01-13T03:17:35;31;;;5;;
15504;SDS011;7854;52.184;5.942;2023-01-13T03:19:51;11;;;4;;
15504;SDS011;7854;52.184;5.942;2023-01-13T03:22:06;25;;;4;;
15504;SDS011;7854;52.184;5.942;2023-01-13T03:24:18;19;;;3;;
15504;SDS011;7854;52.184;5.942;2023-01-13T03:26:33;17;;;3;;
15504;SDS011;7854;52.184;5.942;2023-01-13T03:28:48;26;;;4;;
15504;SDS011;7854;52.184;5.942;2023-01-13T03:31:00;23;;;5;;
15504;SDS011;7854;52.184;5.942;2023-01-13T03:33:15;25;;;4;;
15504;SDS011;7854;52.184;5.942;2023-01-13T03:35:29;13;;;3;;
15504;SDS011;7854;52.184;5.942;2023-01-13T03:37:44;35;;;5;;
15504;SDS011;7854;52.184;5.942;2023-01-13T03:39:58;18;;;3;;
15504;SDS011;7854;52.184;5.942;2023-01-13T03:42:13;24;;;4;;
15504;SDS011;7854;52.184;5.942;2023-01-13T03:44:28;20;;;3;;
15504;SDS011;7854;52.184;5.942;2023-01-13T03:46:43;17;;;3;;
15504;SDS011;7854;52.184;5.942;2023-01-13T03:48:56;15;;;3;;
15504;SDS011;7854;52.184;5.942;2023-01-13T03:51:11;16;;;4;;
15504;SDS011;7854;52.184;5.942;2023-01-13T03:53:26;22;;;4;;
15504;SDS011;7854;52.184;5.942;2023-01-13T03:55:39;21;;;4;;
15504;SDS011;7854;52.184;5.942;2023-01-13T03:57:54;25;;;3;;
15504;SDS011;7854;52.184;5.942;2023-01-13T04:00:08;21;;;3;;
15504;SDS011;7854;52.184;5.942;2023-01-13T04:02:24;23;;;2;;
15504;SDS011;7854;52.184;5.942;2023-01-13T04:04:37;28;;;4;;
15504;SDS011;7854;52.184;5.942;2023-01-13T04:06:53;28;;;3;;
15504;SDS011;7854;52.184;5.942;2023-01-13T04:09:07;22;;;3;;
15504;SDS011;7854;52.184;5.942;2023-01-13T04:11:22;15;;;2;;
15504;SDS011;7854;52.184;5.942;2023-01-13T04:13:35;8;;;3;;
15504;SDS011;7854;52.184;5.942;2023-01-13T04:15:49;28;;;3;;
15504;SDS011;7854;52.184;5.942;2023-01-13T04:18:11;18;;;4;;
15504;SDS011;7854;52.184;5.942;2023-01-13T04:20:18;15;;;3;;
15504;SDS011;7854;52.184;5.942;2023-01-13T04:22:32;9;;;3;;
15504;SDS011;7854;52.184;5.942;2023-01-13T04:24:47;14;;;2;;
15504;SDS011;7854;52.184;5.942;2023-01-13T04:27:01;14;;;3;;
15504;SDS011;7854;52.184;5.942;2023-01-13T04:29:15;11;;;4;;
15504;SDS011;7854;52.184;5.942;2023-01-13T04:31:29;8;;;2;;
15504;SDS011;7854;52.184;5.942;2023-01-13T04:33:44;12;;;3;;
15504;SDS011;7854;52.184;5.942;2023-01-13T04:35:59;15;;;3;;
15504;SDS011;7854;52.184;5.942;2023-01-13T04:38:14;7;;;2;;
15504;SDS011;7854;52.184;5.942;2023-01-13T04:40:28;26;;;3;;
15504;SDS011;7854;52.184;5.942;2023-01-13T04:42:42;5;;;2;;
15504;SDS011;7854;52.184;5.942;2023-01-13T04:44:56;7;;;2;;
15504;SDS011;7854;52.184;5.942;2023-01-13T04:47:11;6;;;2;;
15504;SDS011;7854;52.184;5.942;2023-01-13T04:49:25;6;;;1;;
15504;SDS011;7854;52.184;5.942;2023-01-13T04:51:40;5;;;2;;
15504;SDS011;7854;52.184;5.942;2023-01-13T04:53:54;15;;;3;;
15504;SDS011;7854;52.184;5.942;2023-01-13T04:56:09;8;;;3;;
15504;SDS011;7854;52.184;5.942;2023-01-13T04:58:23;13;;;3;;
15504;SDS011;7854;52.184;5.942;2023-01-13T05:00:38;16;;;3;;
15504;SDS011;7854;52.184;5.942;2023-01-13T05:02:52;7;;;1;;
15504;SDS011;7854;52.184;5.942;2023-01-13T05:05:06;17;;;2;;
15504;SDS011;7854;52.184;5.942;2023-01-13T05:07:20;10;;;1;;
15504;SDS011;7854;52.184;5.942;2023-01-13T05:09:34;9;;;2;;
15504;SDS011;7854;52.184;5.942;2023-01-13T05:11:49;14;;;2;;
15504;SDS011;7854;52.184;5.942;2023-01-13T05:14:03;9;;;1;;
15504;SDS011;7854;52.184;5.942;2023-01-13T05:16:17;7;;;1;;
15504;SDS011;7854;52.184;5.942;2023-01-13T05:18:32;3;;;1;;
15504;SDS011;7854;52.184;5.942;2023-01-13T05:20:46;3;;;1;;
15504;SDS011;7854;52.184;5.942;2023-01-13T05:23:00;7;;;1;;
15504;SDS011;7854;52.184;5.942;2023-01-13T05:25:14;8;;;1;;
15504;SDS011;7854;52.184;5.942;2023-01-13T05:27:29;2;;;1;;
15504;SDS011;7854;52.184;5.942;2023-01-13T05:29:43;5;;;1;;
15504;SDS011;7854;52.184;5.942;2023-01-13T05:31:58;9;;;1;;
15504;SDS011;7854;52.184;5.942;2023-01-13T05:34:12;4;;;1;;
15504;SDS011;7854;52.184;5.942;2023-01-13T05:36:27;7;;;1;;
15504;SDS011;7854;52.184;5.942;2023-01-13T05:38:41;6;;;1;;
15504;SDS011;7854;52.184;5.942;2023-01-13T05:40:57;7;;;1;;
15504;SDS011;7854;52.184;5.942;2023-01-13T05:43:11;5;;;1;;
15504;SDS011;7854;52.184;5.942;2023-01-13T05:45:24;3;;;1;;
15504;SDS011;7854;52.184;5.942;2023-01-13T05:47:39;12;;;1;;
15504;SDS011;7854;52.184;5.942;2023-01-13T05:49:53;3;;;1;;
15504;SDS011;7854;52.184;5.942;2023-01-13T05:52:08;4;;;2;;
15504;SDS011;7854;52.184;5.942;2023-01-13T05:54:22;12;;;1;;
15504;SDS011;7854;52.184;5.942;2023-01-13T05:56:37;2;;;1;;
15504;SDS011;7854;52.184;5.942;2023-01-13T05:58:51;4;;;1;;
15504;SDS011;7854;52.184;5.942;2023-01-13T06:01:06;2;;;1;;
15504;SDS011;7854;52.184;5.942;2023-01-13T06:03:20;10;;;1;;
15504;SDS011;7854;52.184;5.942;2023-01-13T06:05:35;8;;;2;;
15504;SDS011;7854;52.184;5.942;2023-01-13T06:07:49;6;;;1;;
15504;SDS011;7854;52.184;5.942;2023-01-13T06:10:04;7;;;2;;
15504;SDS011;7854;52.184;5.942;2023-01-13T06:12:18;2;;;1;;
15504;SDS011;7854;52.184;5.942;2023-01-13T06:14:32;2;;;1;;
15504;SDS011;7854;52.184;5.942;2023-01-13T06:16:47;15;;;2;;
15504;SDS011;7854;52.184;5.942;2023-01-13T06:19:01;2;;;1;;
15504;SDS011;7854;52.184;5.942;2023-01-13T06:21:16;4;;;1;;
15504;SDS011;7854;52.184;5.942;2023-01-13T06:23:30;3;;;1;;
15504;SDS011;7854;52.184;5.942;2023-01-13T06:25:45;8;;;2;;
15504;SDS011;7854;52.184;5.942;2023-01-13T06:27:59;5;;;1;;
15504;SDS011;7854;52.184;5.942;2023-01-13T06:30:14;8;;;3;;
15504;SDS011;7854;52.184;5.942;2023-01-13T06:32:31;9;;;3;;
15504;SDS011;7854;52.184;5.942;2023-01-13T06:34:42;6;;;1;;
15504;SDS011;7854;52.184;5.942;2023-01-13T06:36:56;18;;;2;;
15504;SDS011;7854;52.184;5.942;2023-01-13T06:39:12;14;;;1;;
15504;SDS011;7854;52.184;5.942;2023-01-13T06:41:25;7;;;1;;
15504;SDS011;7854;52.184;5.942;2023-01-13T06:43:40;12;;;2;;
15504;SDS011;7854;52.184;5.942;2023-01-13T06:45:55;2;;;1;;
15504;SDS011;7854;52.184;5.942;2023-01-13T06:48:09;7;;;1;;
15504;SDS011;7854;52.184;5.942;2023-01-13T06:50:24;12;;;2;;
15504;SDS011;7854;52.184;5.942;2023-01-13T06:52:38;7;;;2;;
15504;SDS011;7854;52.184;5.942;2023-01-13T06:54:52;4;;;1;;
15504;SDS011;7854;52.184;5.942;2023-01-13T06:57:07;5;;;1;;
15504;SDS011;7854;52.184;5.942;2023-01-13T06:59:21;5;;;2;;
15504;SDS011;7854;52.184;5.942;2023-01-13T07:01:36;10;;;2;;
15504;SDS011;7854;52.184;5.942;2023-01-13T07:03:50;18;;;2;;
15504;SDS011;7854;52.184;5.942;2023-01-13T07:06:04;12;;;2;;
15504;SDS011;7854;52.184;5.942;2023-01-13T07:08:19;28;;;3;;
15504;SDS011;7854;52.184;5.942;2023-01-13T07:10:34;12;;;4;;
15504;SDS011;7854;52.184;5.942;2023-01-13T07:12:48;41;;;3;;
15504;SDS011;7854;52.184;5.942;2023-01-13T07:15:03;6;;;2;;
15504;SDS011;7854;52.184;5.942;2023-01-13T07:17:17;8;;;3;;
15504;SDS011;7854;52.184;5.942;2023-01-13T07:19:31;8;;;1;;
15504;SDS011;7854;52.184;5.942;2023-01-13T07:21:45;5;;;1;;
15504;SDS011;7854;52.184;5.942;2023-01-13T07:24:00;10;;;2;;
15504;SDS011;7854;52.184;5.942;2023-01-13T07:26:15;18;;;3;;
15504;SDS011;7854;52.184;5.942;2023-01-13T07:28:29;4;;;2;;
15504;SDS011;7854;52.184;5.942;2023-01-13T07:30:43;9;;;2;;
15504;SDS011;7854;52.184;5.942;2023-01-13T07:32:58;10;;;3;;
15504;SDS011;7854;52.184;5.942;2023-01-13T07:35:12;6;;;2;;
15504;SDS011;7854;52.184;5.942;2023-01-13T07:37:27;27;;;2;;
15504;SDS011;7854;52.184;5.942;2023-01-13T07:39:41;4;;;1;;
15504;SDS011;7854;52.184;5.942;2023-01-13T07:41:55;7;;;2;;
15504;SDS011;7854;52.184;5.942;2023-01-13T07:44:09;16;;;2;;
15504;SDS011;7854;52.184;5.942;2023-01-13T07:46:24;27;;;2;;
15504;SDS011;7854;52.184;5.942;2023-01-13T07:48:38;18;;;2;;
15504;SDS011;7854;52.184;5.942;2023-01-13T07:50:53;14;;;2;;
15504;SDS011;7854;52.184;5.942;2023-01-13T07:55:21;13;;;3;;
15504;SDS011;7854;52.184;5.942;2023-01-13T07:57:35;5;;;2;;
15504;SDS011;7854;52.184;5.942;2023-01-13T07:59:50;18;;;2;;
15504;SDS011;7854;52.184;5.942;2023-01-13T08:02:05;10;;;2;;
15504;SDS011;7854;52.184;5.942;2023-01-13T08:04:19;11;;;2;;
15504;SDS011;7854;52.184;5.942;2023-01-13T08:06:34;8;;;2;;
15504;SDS011;7854;52.184;5.942;2023-01-13T08:08:48;9;;;2;;
15504;SDS011;7854;52.184;5.942;2023-01-13T08:11:03;10;;;2;;
15504;SDS011;7854;52.184;5.942;2023-01-13T08:13:17;8;;;3;;
15504;SDS011;7854;52.184;5.942;2023-01-13T08:15:31;6;;;1;;
15504;SDS011;7854;52.184;5.942;2023-01-13T08:17:46;28;;;3;;
15504;SDS011;7854;52.184;5.942;2023-01-13T08:20:00;12;;;2;;
15504;SDS011;7854;52.184;5.942;2023-01-13T08:22:15;8;;;3;;
15504;SDS011;7854;52.184;5.942;2023-01-13T08:24:29;6;;;2;;
15504;SDS011;7854;52.184;5.942;2023-01-13T08:26:43;13;;;2;;
15504;SDS011;7854;52.184;5.942;2023-01-13T08:28:58;12;;;3;;
15504;SDS011;7854;52.184;5.942;2023-01-13T08:31:13;25;;;2;;
15504;SDS011;7854;52.184;5.942;2023-01-13T08:33:27;14;;;2;;
15504;SDS011;7854;52.184;5.942;2023-01-13T08:35:42;16;;;2;;
15504;SDS011;7854;52.184;5.942;2023-01-13T08:37:55;18;;;3;;
15504;SDS011;7854;52.184;5.942;2023-01-13T08:40:11;4;;;2;;
15504;SDS011;7854;52.184;5.942;2023-01-13T08:42:24;4;;;2;;
15504;SDS011;7854;52.184;5.942;2023-01-13T08:44:39;11;;;3;;
15504;SDS011;7854;52.184;5.942;2023-01-13T08:46:53;25;;;3;;
15504;SDS011;7854;52.184;5.942;2023-01-13T08:49:08;9;;;2;;
15504;SDS011;7854;52.184;5.942;2023-01-13T08:51:22;8;;;3;;
15504;SDS011;7854;52.184;5.942;2023-01-13T08:53:37;11;;;2;;
15504;SDS011;7854;52.184;5.942;2023-01-13T08:58:05;15;;;2;;
15504;SDS011;7854;52.184;5.942;2023-01-13T09:00:20;19;;;2;;
15504;SDS011;7854;52.184;5.942;2023-01-13T09:02:35;7;;;2;;
15504;SDS011;7854;52.184;5.942;2023-01-13T09:04:50;13;;;2;;
15504;SDS011;7854;52.184;5.942;2023-01-13T09:07:04;14;;;3;;
15504;SDS011;7854;52.184;5.942;2023-01-13T09:09:18;9;;;1;;
15504;SDS011;7854;52.184;5.942;2023-01-13T09:11:33;20;;;3;;
15504;SDS011;7854;52.184;5.942;2023-01-13T09:13:47;9;;;3;;
15504;SDS011;7854;52.184;5.942;2023-01-13T09:16:01;8;;;2;;
15504;SDS011;7854;52.184;5.942;2023-01-13T09:18:16;15;;;3;;
15504;SDS011;7854;52.184;5.942;2023-01-13T09:20:30;10;;;2;;
15504;SDS011;7854;52.184;5.942;2023-01-13T09:22:44;12;;;2;;
15504;SDS011;7854;52.184;5.942;2023-01-13T09:24:59;10;;;2;;
15504;SDS011;7854;52.184;5.942;2023-01-13T09:27:14;8;;;2;;
15504;SDS011;7854;52.184;5.942;2023-01-13T09:29:28;24;;;3;;
15504;SDS011;7854;52.184;5.942;2023-01-13T09:31:43;11;;;2;;
15504;SDS011;7854;52.184;5.942;2023-01-13T09:33:57;9;;;3;;
15504;SDS011;7854;52.184;5.942;2023-01-13T09:36:11;17;;;3;;
15504;SDS011;7854;52.184;5.942;2023-01-13T09:38:26;16;;;2;;
15504;SDS011;7854;52.184;5.942;2023-01-13T09:40:40;11;;;3;;
15504;SDS011;7854;52.184;5.942;2023-01-13T09:42:56;19;;;5;;
15504;SDS011;7854;52.184;5.942;2023-01-13T09:45:10;11;;;3;;
15504;SDS011;7854;52.184;5.942;2023-01-13T09:47:24;22;;;3;;
15504;SDS011;7854;52.184;5.942;2023-01-13T09:49:38;9;;;3;;
15504;SDS011;7854;52.184;5.942;2023-01-13T09:51:53;10;;;2;;
15504;SDS011;7854;52.184;5.942;2023-01-13T09:54:09;15;;;3;;
15504;SDS011;7854;52.184;5.942;2023-01-13T09:56:21;16;;;3;;
15504;SDS011;7854;52.184;5.942;2023-01-13T09:58:36;27;;;2;;
15504;SDS011;7854;52.184;5.942;2023-01-13T10:00:54;15;;;3;;
15504;SDS011;7854;52.184;5.942;2023-01-13T10:03:07;8;;;3;;
15504;SDS011;7854;52.184;5.942;2023-01-13T10:05:21;23;;;4;;
15504;SDS011;7854;52.184;5.942;2023-01-13T10:07:33;15;;;3;;
15504;SDS011;7854;52.184;5.942;2023-01-13T10:09:48;22;;;4;;
15504;SDS011;7854;52.184;5.942;2023-01-13T10:12:01;19;;;3;;
15504;SDS011;7854;52.184;5.942;2023-01-13T10:14:17;30;;;3;;
15504;SDS011;7854;52.184;5.942;2023-01-13T10:18:49;23;;;3;;
15504;SDS011;7854;52.184;5.942;2023-01-13T10:21:01;24;;;4;;
15504;SDS011;7854;52.184;5.942;2023-01-13T10:23:20;14;;;2;;
15504;SDS011;7854;52.184;5.942;2023-01-13T10:25:31;6;;;3;;
15504;SDS011;7854;52.184;5.942;2023-01-13T10:27:43;18;;;3;;
15504;SDS011;7854;52.184;5.942;2023-01-13T10:29:57;16;;;3;;
15504;SDS011;7854;52.184;5.942;2023-01-13T10:32:12;8;;;2;;
15504;SDS011;7854;52.184;5.942;2023-01-13T10:34:26;17;;;2;;
15504;SDS011;7854;52.184;5.942;2023-01-13T10:38:56;6;;;2;;
15504;SDS011;7854;52.184;5.942;2023-01-13T10:41:16;11;;;3;;
15504;SDS011;7854;52.184;5.942;2023-01-13T10:43:24;21;;;3;;
15504;SDS011;7854;52.184;5.942;2023-01-13T10:45:38;15;;;3;;
15504;SDS011;7854;52.184;5.942;2023-01-13T10:48:02;18;;;3;;
15504;SDS011;7854;52.184;5.942;2023-01-13T10:50:23;5;;;2;;
15504;SDS011;7854;52.184;5.942;2023-01-13T10:52:24;16;;;3;;
15504;SDS011;7854;52.184;5.942;2023-01-13T10:54:36;10;;;3;;
15504;SDS011;7854;52.184;5.942;2023-01-13T10:59:12;8;;;3;;
15504;SDS011;7854;52.184;5.942;2023-01-13T11:01:20;8;;;3;;
15504;SDS011;7854;52.184;5.942;2023-01-13T11:03:34;36;;;4;;
15504;SDS011;7854;52.184;5.942;2023-01-13T11:05:54;19;;;2;;
15504;SDS011;7854;52.184;5.942;2023-01-13T11:08:15;15;;;3;;
15504;SDS011;7854;52.184;5.942;2023-01-13T11:10:34;17;;;3;;
15504;SDS011;7854;52.184;5.942;2023-01-13T11:12:57;22;;;3;;
15504;SDS011;7854;52.184;5.942;2023-01-13T11:15:17;11;;;3;;
15504;SDS011;7854;52.184;5.942;2023-01-13T11:19:51;13;;;2;;
15504;SDS011;7854;52.184;5.942;2023-01-13T11:22:05;6;;;2;;
15504;SDS011;7854;52.184;5.942;2023-01-13T11:24:32;11;;;3;;
15504;SDS011;7854;52.184;5.942;2023-01-13T11:27:04;6;;;3;;
15504;SDS011;7854;52.184;5.942;2023-01-13T11:29:26;15;;;3;;
15504;SDS011;7854;52.184;5.942;2023-01-13T11:31:52;36;;;5;;
15504;SDS011;7854;52.184;5.942;2023-01-13T11:34:20;21;;;3;;
15504;SDS011;7854;52.184;5.942;2023-01-13T11:36:38;34;;;3;;
15504;SDS011;7854;52.184;5.942;2023-01-13T11:39:00;6;;;2;;
15504;SDS011;7854;52.184;5.942;2023-01-13T11:41:23;11;;;3;;
15504;SDS011;7854;52.184;5.942;2023-01-13T11:43:41;9;;;2;;
15504;SDS011;7854;52.184;5.942;2023-01-13T11:46:00;17;;;2;;
15504;SDS011;7854;52.184;5.942;2023-01-13T11:48:19;8;;;3;;
15504;SDS011;7854;52.184;5.942;2023-01-13T11:50:35;7;;;2;;
15504;SDS011;7854;52.184;5.942;2023-01-13T11:52:53;6;;;2;;
15504;SDS011;7854;52.184;5.942;2023-01-13T11:55:06;9;;;2;;
15504;SDS011;7854;52.184;5.942;2023-01-13T11:57:24;18;;;2;;
15504;SDS011;7854;52.184;5.942;2023-01-13T11:59:38;5;;;2;;
15504;SDS011;7854;52.184;5.942;2023-01-13T12:01:48;17;;;3;;
15504;SDS011;7854;52.184;5.942;2023-01-13T12:04:04;17;;;4;;
15504;SDS011;7854;52.184;5.942;2023-01-13T12:06:17;19;;;2;;
15504;SDS011;7854;52.184;5.942;2023-01-13T12:10:48;11;;;2;;
15504;SDS011;7854;52.184;5.942;2023-01-13T12:13:00;15;;;3;;
15504;SDS011;7854;52.184;5.942;2023-01-13T12:17:29;3;;;2;;
15504;SDS011;7854;52.184;5.942;2023-01-13T12:19:41;16;;;2;;
15504;SDS011;7854;52.184;5.942;2023-01-13T12:22:00;5;;;1;;
15504;SDS011;7854;52.184;5.942;2023-01-13T12:24:12;3;;;2;;
15504;SDS011;7854;52.184;5.942;2023-01-13T12:26:24;5;;;1;;
15504;SDS011;7854;52.184;5.942;2023-01-13T12:28:41;14;;;3;;
15504;SDS011;7854;52.184;5.942;2023-01-13T12:30:55;26;;;2;;
15504;SDS011;7854;52.184;5.942;2023-01-13T12:33:11;5;;;2;;
15504;SDS011;7854;52.184;5.942;2023-01-13T12:35:27;7;;;2;;
15504;SDS011;7854;52.184;5.942;2023-01-13T12:37:38;23;;;2;;
15504;SDS011;7854;52.184;5.942;2023-01-13T12:39:56;14;;;2;;
15504;SDS011;7854;52.184;5.942;2023-01-13T12:42:07;10;;;1;;
15504;SDS011;7854;52.184;5.942;2023-01-13T12:44:20;21;;;1;;
15504;SDS011;7854;52.184;5.942;2023-01-13T12:46:50;5;;;2;;
15504;SDS011;7854;52.184;5.942;2023-01-13T12:49:05;5;;;1;;
15504;SDS011;7854;52.184;5.942;2023-01-13T12:51:18;5;;;2;;
15504;SDS011;7854;52.184;5.942;2023-01-13T12:53:34;5;;;1;;
15504;SDS011;7854;52.184;5.942;2023-01-13T12:55:32;5;;;2;;
15504;SDS011;7854;52.184;5.942;2023-01-13T12:57:54;16;;;1;;
15504;SDS011;7854;52.184;5.942;2023-01-13T13:00:16;5;;;2;;
15504;SDS011;7854;52.184;5.942;2023-01-13T13:02:31;12;;;3;;
15504;SDS011;7854;52.184;5.942;2023-01-13T13:04:40;2;;;1;;
15504;SDS011;7854;52.184;5.942;2023-01-13T13:06:44;4;;;2;;
15504;SDS011;7854;52.184;5.942;2023-01-13T13:08:59;6;;;1;;
15504;SDS011;7854;52.184;5.942;2023-01-13T13:11:18;5;;;2;;
15504;SDS011;7854;52.184;5.942;2023-01-13T13:13:43;6;;;2;;
15504;SDS011;7854;52.184;5.942;2023-01-13T13:15:41;14;;;2;;
15504;SDS011;7854;52.184;5.942;2023-01-13T13:18:00;4;;;1;;
15504;SDS011;7854;52.184;5.942;2023-01-13T13:22:37;4;;;1;;
15504;SDS011;7854;52.184;5.942;2023-01-13T13:26:53;7;;;2;;
15504;SDS011;7854;52.184;5.942;2023-01-13T13:29:20;4;;;1;;
15504;SDS011;7854;52.184;5.942;2023-01-13T13:31:28;12;;;3;;
15504;SDS011;7854;52.184;5.942;2023-01-13T13:33:44;6;;;1;;
15504;SDS011;7854;52.184;5.942;2023-01-13T13:35:54;9;;;1;;
15504;SDS011;7854;52.184;5.942;2023-01-13T13:38:13;2;;;1;;
15504;SDS011;7854;52.184;5.942;2023-01-13T13:40:21;4;;;1;;
15504;SDS011;7854;52.184;5.942;2023-01-13T13:42:36;4;;;1;;
15504;SDS011;7854;52.184;5.942;2023-01-13T13:44:49;1;;;1;;
15504;SDS011;7854;52.184;5.942;2023-01-13T13:47:04;4;;;1;;
15504;SDS011;7854;52.184;5.942;2023-01-13T13:49:19;6;;;2;;
15504;SDS011;7854;52.184;5.942;2023-01-13T13:51:33;8;;;1;;
15504;SDS011;7854;52.184;5.942;2023-01-13T13:53:47;22;;;1;;
15504;SDS011;7854;52.184;5.942;2023-01-13T13:56:02;5;;;1;;
15504;SDS011;7854;52.184;5.942;2023-01-13T13:58:16;7;;;2;;
15504;SDS011;7854;52.184;5.942;2023-01-13T14:00:32;3;;;1;;
15504;SDS011;7854;52.184;5.942;2023-01-13T14:02:45;4;;;1;;
15504;SDS011;7854;52.184;5.942;2023-01-13T14:05:10;5;;;1;;
15504;SDS011;7854;52.184;5.942;2023-01-13T14:07:15;2;;;0;;
15504;SDS011;7854;52.184;5.942;2023-01-13T14:09:37;2;;;1;;
15504;SDS011;7854;52.184;5.942;2023-01-13T14:14:01;1;;;1;;
15504;SDS011;7854;52.184;5.942;2023-01-13T14:16:11;6;;;1;;
15504;SDS011;7854;52.184;5.942;2023-01-13T14:18:26;4;;;1;;
15504;SDS011;7854;52.184;5.942;2023-01-13T14:20:41;2;;;1;;
15504;SDS011;7854;52.184;5.942;2023-01-13T14:22:55;3;;;2;;
15504;SDS011;7854;52.184;5.942;2023-01-13T14:25:19;3;;;1;;
15504;SDS011;7854;52.184;5.942;2023-01-13T14:27:24;4;;;1;;
15504;SDS011;7854;52.184;5.942;2023-01-13T14:29:38;2;;;1;;
15504;SDS011;7854;52.184;5.942;2023-01-13T14:31:53;3;;;1;;
15504;SDS011;7854;52.184;5.942;2023-01-13T14:34:08;12;;;1;;
15504;SDS011;7854;52.184;5.942;2023-01-13T14:36:22;6;;;2;;
15504;SDS011;7854;52.184;5.942;2023-01-13T14:38:36;4;;;1;;
15504;SDS011;7854;52.184;5.942;2023-01-13T14:40:50;5;;;1;;
15504;SDS011;7854;52.184;5.942;2023-01-13T14:43:07;2;;;0;;
15504;SDS011;7854;52.184;5.942;2023-01-13T14:45:20;9;;;1;;
15504;SDS011;7854;52.184;5.942;2023-01-13T14:47:33;3;;;1;;
15504;SDS011;7854;52.184;5.942;2023-01-13T14:49:50;10;;;1;;
15504;SDS011;7854;52.184;5.942;2023-01-13T14:52:04;2;;;1;;
15504;SDS011;7854;52.184;5.942;2023-01-13T14:54:36;12;;;1;;
15504;SDS011;7854;52.184;5.942;2023-01-13T14:56:36;4;;;1;;
15504;SDS011;7854;52.184;5.942;2023-01-13T14:58:46;4;;;2;;
15504;SDS011;7854;52.184;5.942;2023-01-13T15:01:24;20;;;1;;
15504;SDS011;7854;52.184;5.942;2023-01-13T15:03:15;12;;;2;;
15504;SDS011;7854;52.184;5.942;2023-01-13T15:05:31;4;;;1;;
15504;SDS011;7854;52.184;5.942;2023-01-13T15:07:48;3;;;1;;
15504;SDS011;7854;52.184;5.942;2023-01-13T15:09:58;6;;;2;;
15504;SDS011;7854;52.184;5.942;2023-01-13T15:12:14;19;;;3;;
15504;SDS011;7854;52.184;5.942;2023-01-13T15:14:28;10;;;3;;
15504;SDS011;7854;52.184;5.942;2023-01-13T15:16:40;3;;;1;;
15504;SDS011;7854;52.184;5.942;2023-01-13T15:18:55;3;;;1;;
15504;SDS011;7854;52.184;5.942;2023-01-13T15:21:10;2;;;1;;
15504;SDS011;7854;52.184;5.942;2023-01-13T15:23:24;8;;;2;;